Time;durP1;ratioP1;P1;durP2;ratioP2;P2;SDS_P1;SDS_P2;PMS_P1;PMS_P2;Temp;Humidity;BMP_temperature;BMP_pressure;BME280_temperature;BME280_humidity;BME280_pressure;Samples;Min_cycle;Max_cycle;Signal;HPM_P1;HPM_P2
2021/07/11 00:00:52;;;;;;;7.35;5.75;;;;;;;17.96;nan;100466.19;5048145;28;20037;-90
2021/07/11 00:03:18;;;;;;;6.63;4.57;;;;;;;18.00;nan;100459.41;5050537;28;20144;-90
2021/07/11 00:05:47;;;;;;;6.40;4.93;;;;;;;18.01;nan;100459.19;5047285;28;20036;-91
2021/07/11 00:08:31;;;;;;;6.05;4.63;;;;;;;17.98;nan;100454.25;5052351;28;20037;-90
2021/07/11 00:11:02;;;;;;;5.90;4.82;;;;;;;18.02;nan;100446.66;5054838;28;20487;-90
2021/07/11 00:13:45;;;;;;;5.35;4.40;;;;;;;17.99;nan;100450.53;5045294;28;20057;-91
2021/07/11 00:16:11;;;;;;;5.80;4.50;;;;;;;17.98;nan;100458.78;5050963;28;20516;-90
2021/07/11 00:18:37;;;;;;;5.15;4.10;;;;;;;17.97;nan;100460.63;5051615;28;20388;-91
2021/07/11 00:21:03;;;;;;;4.25;3.70;;;;;;;17.94;nan;100450.31;5051904;28;20120;-91
2021/07/11 00:23:29;;;;;;;6.45;4.45;;;;;;;17.98;nan;100448.06;5051590;28;20037;-91
2021/07/11 00:25:55;;;;;;;4.65;4.20;;;;;;;17.93;nan;100439.84;5053668;28;20032;-92
2021/07/11 00:28:24;;;;;;;4.80;3.65;;;;;;;17.91;nan;100439.22;5070532;28;20033;-91
2021/07/11 00:30:51;;;;;;;5.68;4.00;;;;;;;17.90;nan;100440.22;5035524;28;20037;-92
2021/07/11 00:33:17;;;;;;;4.63;3.80;;;;;;;17.82;nan;100435.88;5051597;28;20540;-92
2021/07/11 00:35:47;;;;;;;4.72;3.45;;;;;;;17.77;nan;100443.66;5045208;28;20420;-93
2021/07/11 00:38:21;;;;;;;5.28;3.30;;;;;;;17.73;nan;100442.41;5012546;28;20137;-93
2021/07/11 00:40:48;;;;;;;3.88;3.33;;;;;;;17.76;nan;100452.72;5060418;28;20705;-92
2021/07/11 00:43:15;;;;;;;4.15;3.38;;;;;;;17.73;nan;100447.75;5071255;28;20561;-90
2021/07/11 00:45:42;;;;;;;3.63;2.85;;;;;;;17.68;nan;100451.03;5071232;28;20108;-91
2021/07/11 00:48:11;;;;;;;5.20;3.10;;;;;;;17.63;nan;100451.63;5029908;28;20098;-92
2021/07/11 00:50:38;;;;;;;3.60;2.80;;;;;;;17.55;nan;100443.78;5070504;28;20029;-90
2021/07/11 00:53:09;;;;;;;4.90;3.03;;;;;;;17.55;nan;100446.47;5070433;28;20036;-90
2021/07/11 00:55:36;;;;;;;5.55;3.22;;;;;;;17.58;nan;100443.38;5054859;28;20033;-91
2021/07/11 00:58:04;;;;;;;4.07;3.15;;;;;;;17.53;nan;100445.81;5055899;28;20036;-92
2021/07/11 01:00:32;;;;;;;5.07;2.65;;;;;;;17.57;nan;100446.28;5038413;28;20037;-92
2021/07/11 01:03:36;;;;;;;4.10;3.00;;;;;;;17.53;nan;100445.00;5066060;28;20104;-91
2021/07/11 01:06:09;;;;;;;4.50;2.85;;;;;;;17.51;nan;100444.38;5033148;28;20123;-92
2021/07/11 01:08:56;;;;;;;3.63;2.75;;;;;;;17.53;nan;100451.19;5052803;28;20033;-91
2021/07/11 01:11:51;;;;;;;3.83;2.78;;;;;;;17.51;nan;100449.72;5049566;28;20090;-92
2021/07/11 01:14:30;;;;;;;4.80;2.90;;;;;;;17.46;nan;100450.31;5068970;28;20036;-92
2021/07/11 01:16:59;;;;;;;4.60;3.20;;;;;;;17.50;nan;100437.41;5056114;28;20559;-91
2021/07/11 01:20:09;;;;;;;5.13;2.97;;;;;;;17.49;nan;100447.25;5045389;28;20067;-92
2021/07/11 01:22:43;;;;;;;3.50;2.83;;;;;;;17.45;nan;100451.34;5046832;28;20040;-92
2021/07/11 01:25:26;;;;;;;4.45;3.03;;;;;;;17.43;nan;100453.41;5053172;28;20064;-92
2021/07/11 01:27:58;;;;;;;3.78;2.88;;;;;;;17.36;nan;100450.69;5055652;28;20051;-92
2021/07/11 01:30:32;;;;;;;4.28;3.00;;;;;;;17.40;nan;100456.47;5047122;28;20441;-92
2021/07/11 01:33:02;;;;;;;5.32;2.70;;;;;;;17.42;nan;100459.75;5058199;28;20041;-92
2021/07/11 01:35:29;;;;;;;4.15;3.10;;;;;;;17.33;nan;100458.28;5027983;28;20460;-91
2021/07/11 01:37:56;;;;;;;5.63;3.28;;;;;;;17.35;nan;100461.56;5032923;28;20048;-91
2021/07/11 01:40:26;;;;;;;6.07;3.22;;;;;;;17.27;nan;100459.06;5064290;28;20047;-91
2021/07/11 01:42:55;;;;;;;4.45;3.20;;;;;;;17.28;nan;100461.56;5070749;28;20029;-91
2021/07/11 01:45:21;;;;;;;5.05;2.80;;;;;;;17.29;nan;100468.53;5052708;28;20038;-91
2021/07/11 01:47:49;;;;;;;4.68;3.35;;;;;;;17.28;nan;100463.38;5063883;28;20673;-91
2021/07/11 01:50:16;;;;;;;4.55;3.67;;;;;;;17.27;nan;100465.22;5089569;28;20121;-92
2021/07/11 01:52:42;;;;;;;4.32;3.40;;;;;;;17.23;nan;100469.31;5056381;28;20029;-92
2021/07/11 01:55:09;;;;;;;5.53;3.17;;;;;;;17.20;nan;100467.88;5070210;28;20033;-91
2021/07/11 01:57:37;;;;;;;7.97;3.50;;;;;;;17.18;nan;100471.75;5053385;28;20559;-92
2021/07/11 02:00:08;;;;;;;4.35;3.10;;;;;;;17.14;nan;100463.31;5040292;28;20041;-92
2021/07/11 02:02:33;;;;;;;4.10;3.10;;;;;;;17.10;nan;100466.59;5024504;28;20037;-91
2021/07/11 02:05:04;;;;;;;5.68;3.20;;;;;;;17.12;nan;100461.88;5040622;28;20116;-90
2021/07/11 02:07:30;;;;;;;4.88;3.33;;;;;;;17.10;nan;100459.38;5054223;28;20037;-91
2021/07/11 02:09:56;;;;;;;4.07;3.15;;;;;;;17.06;nan;100460.78;5053221;28;20123;-91
2021/07/11 02:12:24;;;;;;;4.35;3.17;;;;;;;17.07;nan;100457.13;5040319;28;20038;-91
2021/07/11 02:14:55;;;;;;;4.95;3.10;;;;;;;17.09;nan;100467.59;5046444;28;20039;-92
2021/07/11 02:17:24;;;;;;;5.32;3.00;;;;;;;17.06;nan;100463.47;5052892;28;20029;-92
2021/07/11 02:19:51;;;;;;;4.10;3.28;;;;;;;17.06;nan;100471.47;5069556;28;20626;-92
2021/07/11 02:22:17;;;;;;;6.00;3.20;;;;;;;17.03;nan;100471.88;5035402;28;20036;-92
2021/07/11 02:24:45;;;;;;;4.28;3.70;;;;;;;17.02;nan;100478.25;5053374;28;20388;-92
2021/07/11 02:27:12;;;;;;;4.63;3.53;;;;;;;17.01;nan;100465.91;5069233;28;20047;-91
2021/07/11 02:29:41;;;;;;;5.57;3.60;;;;;;;17.04;nan;100472.69;5069157;28;20040;-92
2021/07/11 02:32:09;;;;;;;6.95;3.97;;;;;;;17.06;nan;100476.00;5044544;28;20113;-92
2021/07/11 02:34:36;;;;;;;5.45;4.07;;;;;;;17.07;nan;100486.50;5033550;28;20036;-93
2021/07/11 02:37:08;;;;;;;4.35;3.35;;;;;;;17.08;nan;100484.66;5037268;28;20039;-92
2021/07/11 02:39:36;;;;;;;4.50;3.60;;;;;;;17.08;nan;100474.78;5069122;28;20048;-91
2021/07/11 02:42:05;;;;;;;6.00;4.10;;;;;;;17.13;nan;100479.53;5069952;28;20092;-92
2021/07/11 02:44:32;;;;;;;5.00;4.13;;;;;;;17.10;nan;100477.28;5053908;28;20036;-90
2021/07/11 02:47:02;;;;;;;5.47;4.22;;;;;;;17.08;nan;100479.31;5055710;28;20047;-91
2021/07/11 02:49:31;;;;;;;6.72;4.45;;;;;;;17.12;nan;100477.91;5071423;28;20029;-91
2021/07/11 02:51:59;;;;;;;5.75;4.57;;;;;;;17.11;nan;100481.56;5089264;28;20040;-92
2021/07/11 02:54:29;;;;;;;6.25;4.70;;;;;;;17.07;nan;100477.66;5053623;28;21595;-91
2021/07/11 02:56:59;;;;;;;5.65;4.90;;;;;;;17.10;nan;100482.63;5052293;28;20029;-90
2021/07/11 02:59:35;;;;;;;6.73;4.90;;;;;;;17.08;nan;100480.13;5044690;28;20107;-92
2021/07/11 03:02:08;;;;;;;6.47;4.47;;;;;;;17.05;nan;100480.53;5031843;28;20053;-92
2021/07/11 03:04:39;;;;;;;6.85;4.80;;;;;;;17.06;nan;100484.84;5033755;28;20034;-91
2021/07/11 03:07:07;;;;;;;6.63;5.20;;;;;;;17.03;nan;100479.06;5043405;28;20033;-91
2021/07/11 03:09:38;;;;;;;6.88;5.00;;;;;;;17.03;nan;100476.41;5053397;28;20412;-92
2021/07/11 03:12:04;;;;;;;5.93;5.03;;;;;;;16.95;nan;100472.84;5052728;28;20029;-91
2021/07/11 03:14:30;;;;;;;5.72;4.82;;;;;;;16.92;nan;100467.91;5070288;28;20051;-90
2021/07/11 03:16:58;;;;;;;6.57;5.00;;;;;;;16.94;nan;100476.53;5052542;28;20120;-91
2021/07/11 03:19:26;;;;;;;7.03;4.90;;;;;;;16.91;nan;100476.09;5052898;28;20041;-90
2021/07/11 03:21:53;;;;;;;7.30;4.95;;;;;;;16.91;nan;100478.78;5052782;28;20101;-91
2021/07/11 03:24:22;;;;;;;6.97;5.15;;;;;;;16.90;nan;100487.78;5052032;28;20041;-92
2021/07/11 03:26:51;;;;;;;6.95;4.55;;;;;;;16.92;nan;100485.75;5052509;28;20037;-91
2021/07/11 03:29:51;;;;;;;7.43;4.78;;;;;;;16.89;nan;100483.50;5052665;28;20163;-90
2021/07/11 03:32:19;;;;;;;7.65;5.57;;;;;;;16.85;nan;100476.88;5049706;28;20037;-90
2021/07/11 03:34:46;;;;;;;7.93;5.40;;;;;;;16.88;nan;100479.19;5039768;28;20040;-90
2021/07/11 03:37:12;;;;;;;6.63;5.03;;;;;;;16.88;nan;100480.00;5052517;28;20115;-91
2021/07/11 03:39:41;;;;;;;6.03;4.50;;;;;;;16.87;nan;100482.84;5052443;28;20453;-91
2021/07/11 03:42:08;;;;;;;5.78;4.45;;;;;;;16.81;nan;100481.78;5051236;28;20033;-91
2021/07/11 03:44:35;;;;;;;8.23;4.57;;;;;;;16.83;nan;100484.25;5052143;28;20025;-92
2021/07/11 03:47:03;;;;;;;7.28;4.40;;;;;;;16.80;nan;100485.47;5054057;28;20524;-90
2021/07/11 03:49:30;;;;;;;6.13;4.18;;;;;;;16.80;nan;100482.78;5057616;28;20491;-90
2021/07/11 03:52:00;;;;;;;4.90;3.90;;;;;;;16.80;nan;100484.66;5051340;28;20120;-90
2021/07/11 03:54:27;;;;;;;6.05;4.47;;;;;;;16.76;nan;100489.53;5051552;28;20029;-90
2021/07/11 03:56:54;;;;;;;5.32;3.80;;;;;;;16.70;nan;100479.59;5052201;28;20029;-91
2021/07/11 03:59:21;;;;;;;5.88;4.10;;;;;;;16.79;nan;100483.81;5052140;28;20079;-90
2021/07/11 04:01:49;;;;;;;5.50;3.92;;;;;;;16.72;nan;100490.94;5056094;28;20033;-90
2021/07/11 04:04:19;;;;;;;4.50;3.75;;;;;;;16.76;nan;100501.03;5056073;28;20500;-91
2021/07/11 04:06:48;;;;;;;7.07;4.57;;;;;;;16.77;nan;100493.84;5055961;28;20064;-91
2021/07/11 04:09:20;;;;;;;5.18;3.45;;;;;;;16.74;nan;100492.38;5057456;28;20040;-90
2021/07/11 04:11:46;;;;;;;4.80;4.00;;;;;;;16.71;nan;100500.78;5055485;28;20033;-91
2021/07/11 04:14:15;;;;;;;4.82;3.42;;;;;;;16.73;nan;100497.91;5063072;28;20140;-90
2021/07/11 04:16:43;;;;;;;5.60;3.90;;;;;;;16.77;nan;100510.69;5055504;28;20025;-91
2021/07/11 04:19:09;;;;;;;5.65;3.90;;;;;;;16.75;nan;100510.03;5056178;28;20033;-90
2021/07/11 04:21:35;;;;;;;5.72;4.13;;;;;;;16.77;nan;100513.34;5056342;28;20396;-91
2021/07/11 04:24:03;;;;;;;7.53;4.35;;;;;;;16.80;nan;100516.69;5072422;28;20048;-90
2021/07/11 04:26:33;;;;;;;5.53;4.22;;;;;;;16.83;nan;100518.97;5071427;28;20500;-90
2021/07/11 04:29:00;;;;;;;6.03;4.40;;;;;;;16.84;nan;100512.63;5072415;28;20033;-91
2021/07/11 04:31:25;;;;;;;6.60;4.20;;;;;;;16.83;nan;100513.63;5055847;28;20060;-91
2021/07/11 04:33:52;;;;;;;4.70;4.05;;;;;;;16.84;nan;100515.28;5081931;28;20118;-90
2021/07/11 04:36:17;;;;;;;6.32;3.72;;;;;;;16.85;nan;100522.28;5054591;28;20037;-90
2021/07/11 04:38:43;;;;;;;6.00;4.18;;;;;;;16.91;nan;100521.50;5056946;28;20033;-89
2021/07/11 04:41:10;;;;;;;5.53;4.15;;;;;;;16.84;nan;100524.13;5055278;28;20037;-90
2021/07/11 04:43:36;;;;;;;6.60;4.00;;;;;;;16.86;nan;100523.94;5055075;28;20036;-90
2021/07/11 04:46:01;;;;;;;5.00;3.90;;;;;;;16.83;nan;100522.50;5047120;28;20037;-90
2021/07/11 04:48:33;;;;;;;6.53;4.20;;;;;;;16.85;nan;100524.94;5036161;28;20029;-91
2021/07/11 04:50:58;;;;;;;5.78;3.78;;;;;;;16.88;nan;100527.25;5051450;28;20048;-91
2021/07/11 04:53:24;;;;;;;5.53;3.90;;;;;;;16.90;nan;100531.38;5051884;28;20453;-91
2021/07/11 04:55:50;;;;;;;4.72;3.97;;;;;;;16.94;nan;100531.81;5052038;28;20034;-90
2021/07/11 04:58:15;;;;;;;9.70;4.57;;;;;;;17.00;nan;100536.38;5064198;28;20031;-90
2021/07/11 05:00:42;;;;;;;5.68;4.13;;;;;;;16.98;nan;100533.91;5056199;28;20068;-91
2021/07/11 05:03:07;;;;;;;4.97;4.00;;;;;;;16.92;nan;100537.34;5056080;28;20036;-90
2021/07/11 05:05:36;;;;;;;4.28;3.63;;;;;;;16.94;nan;100540.63;5056442;28;20109;-90
2021/07/11 05:08:03;;;;;;;4.50;3.47;;;;;;;16.94;nan;100540.63;5054349;28;20025;-90
2021/07/11 05:10:29;;;;;;;5.72;3.50;;;;;;;16.93;nan;100551.53;5055880;28;20029;-91
2021/07/11 05:12:54;;;;;;;4.35;3.33;;;;;;;16.93;nan;100548.88;5053965;28;20029;-91
2021/07/11 05:15:20;;;;;;;6.70;4.30;;;;;;;17.00;nan;100551.59;5054796;28;20025;-91
2021/07/11 05:17:45;;;;;;;7.13;4.18;;;;;;;16.96;nan;100549.28;5055106;28;20029;-91
2021/07/11 05:20:16;;;;;;;8.02;5.00;;;;;;;16.99;nan;100553.41;5053702;28;20049;-91
2021/07/11 05:22:42;;;;;;;8.05;4.70;;;;;;;16.97;nan;100550.09;5055037;28;20052;-91
2021/07/11 05:25:07;;;;;;;8.13;4.30;;;;;;;16.97;nan;100552.78;5040996;28;20046;-91
2021/07/11 05:27:34;;;;;;;5.35;4.03;;;;;;;16.97;nan;100552.78;5043311;28;20021;-91
2021/07/11 05:30:00;;;;;;;4.68;3.97;;;;;;;17.03;nan;100567.22;5050333;28;20033;-91
2021/07/11 05:32:25;;;;;;;6.72;4.05;;;;;;;17.02;nan;100562.88;5050261;28;20110;-91
2021/07/11 05:34:51;;;;;;;6.45;4.50;;;;;;;16.97;nan;100555.44;5053563;28;20104;-91
2021/07/11 05:37:16;;;;;;;6.38;4.80;;;;;;;16.94;nan;100554.00;5067613;28;20025;-91
2021/07/11 05:39:41;;;;;;;5.97;4.55;;;;;;;16.93;nan;100564.88;5054140;28;20048;-93
2021/07/11 05:42:07;;;;;;;6.07;5.03;;;;;;;16.89;nan;100560.94;5053596;28;20036;-91
2021/07/11 05:44:32;;;;;;;6.82;5.50;;;;;;;16.86;nan;100570.16;5054155;28;20048;-92
2021/07/11 05:46:57;;;;;;;8.07;6.38;;;;;;;16.79;nan;100571.13;5070412;28;20095;-92
2021/07/11 05:49:23;;;;;;;7.90;7.10;;;;;;;16.72;nan;100563.84;5054200;28;20120;-92
2021/07/11 05:51:48;;;;;;;8.35;7.45;;;;;;;16.63;nan;100561.50;5054515;28;20448;-91
2021/07/11 05:54:13;;;;;;;9.07;8.18;;;;;;;16.62;nan;100562.53;5069953;28;20033;-91
2021/07/11 05:56:38;;;;;;;8.18;7.30;;;;;;;16.62;nan;100568.69;5053526;28;20091;-91
2021/07/11 05:59:04;;;;;;;10.35;8.30;;;;;;;16.68;nan;100572.41;5070816;28;20061;-91
2021/07/11 06:01:32;;;;;;;9.55;8.40;;;;;;;16.64;nan;100568.50;5052997;28;20427;-92
2021/07/11 06:03:57;;;;;;;9.88;8.63;;;;;;;16.59;nan;100558.38;5053674;28;20121;-91
2021/07/11 06:06:23;;;;;;;10.85;8.80;;;;;;;16.58;nan;100562.06;5052946;28;20053;-91
2021/07/11 06:08:49;;;;;;;9.93;8.10;;;;;;;16.63;nan;100562.31;5053710;28;20037;-91
2021/07/11 06:11:14;;;;;;;9.07;7.82;;;;;;;16.67;nan;100557.44;5053213;28;20094;-90
2021/07/11 06:13:39;;;;;;;8.75;7.50;;;;;;;16.81;nan;100563.75;5053451;28;20029;-91
2021/07/11 06:16:05;;;;;;;8.30;7.40;;;;;;;16.86;nan;100562.16;5052417;28;20029;-91
2021/07/11 06:18:30;;;;;;;7.70;6.90;;;;;;;16.92;nan;100560.56;5054623;28;20411;-90
2021/07/11 06:20:55;;;;;;;7.07;6.35;;;;;;;17.03;nan;100565.38;5054752;28;20098;-90
2021/07/11 06:23:21;;;;;;;6.93;6.22;;;;;;;17.10;nan;100566.25;5069883;28;20171;-90
2021/07/11 06:25:46;;;;;;;8.40;7.25;;;;;;;17.12;nan;100569.56;5053920;28;20033;-90
2021/07/11 06:28:11;;;;;;;7.78;6.97;;;;;;;17.13;nan;100584.56;5067978;28;20552;-91
2021/07/11 06:30:37;;;;;;;9.93;8.40;;;;;;;17.11;nan;100581.28;5058951;28;20036;-90
2021/07/11 06:33:04;;;;;;;8.90;7.47;;;;;;;16.94;nan;100582.56;5053172;28;20179;-91
2021/07/11 06:35:30;;;;;;;10.13;7.70;;;;;;;16.86;nan;100588.03;5052847;28;20033;-91
2021/07/11 06:37:55;;;;;;;9.10;7.88;;;;;;;16.92;nan;100576.56;5054363;28;20045;-92
2021/07/11 06:40:22;;;;;;;8.13;6.97;;;;;;;16.99;nan;100580.13;5052591;28;20071;-91
2021/07/11 06:42:48;;;;;;;7.65;6.53;;;;;;;17.00;nan;100580.97;5069441;28;20035;-91
2021/07/11 06:45:14;;;;;;;8.02;6.40;;;;;;;16.98;nan;100568.63;5052402;28;20033;-91
2021/07/11 06:47:41;;;;;;;7.70;6.90;;;;;;;17.01;nan;100569.25;5052950;28;20032;-91
2021/07/11 06:50:10;;;;;;;7.07;6.15;;;;;;;17.02;nan;100571.75;5052459;28;20060;-92
2021/07/11 06:52:36;;;;;;;8.00;6.07;;;;;;;17.11;nan;100580.44;5051841;28;20492;-91
2021/07/11 06:55:14;;;;;;;8.80;7.13;;;;;;;17.12;nan;100584.78;5052447;28;20047;-91
2021/07/11 06:57:39;;;;;;;6.65;5.95;;;;;;;17.16;nan;100586.03;5053956;28;20059;-90
2021/07/11 07:00:12;;;;;;;6.88;5.97;;;;;;;17.15;nan;100582.53;5051099;28;20120;-91
2021/07/11 07:02:39;;;;;;;6.35;5.75;;;;;;;17.16;nan;100592.22;5042154;28;20048;-91
2021/07/11 07:05:05;;;;;;;8.32;7.20;;;;;;;17.16;nan;100592.22;5052408;28;20033;-91
2021/07/11 07:07:31;;;;;;;8.15;6.32;;;;;;;17.15;nan;100595.06;5047808;28;20470;-90
2021/07/11 07:09:56;;;;;;;10.30;7.35;;;;;;;17.10;nan;100592.16;5052031;28;20124;-91
2021/07/11 07:12:22;;;;;;;6.65;6.05;;;;;;;17.09;nan;100596.69;5051492;28;20033;-90
2021/07/11 07:14:47;;;;;;;8.40;6.88;;;;;;;17.13;nan;100597.09;5070812;28;20082;-91
2021/07/11 07:17:13;;;;;;;7.70;6.88;;;;;;;17.11;nan;100593.78;5081214;28;20029;-91
2021/07/11 07:19:38;;;;;;;6.38;5.50;;;;;;;17.11;nan;100596.47;5052218;28;20021;-91
2021/07/11 07:22:03;;;;;;;6.18;5.57;;;;;;;17.11;nan;100602.66;5052252;28;20039;-90
2021/07/11 07:24:29;;;;;;;5.68;5.13;;;;;;;17.15;nan;100611.91;5052769;28;20033;-90
2021/07/11 07:26:54;;;;;;;6.93;5.45;;;;;;;17.12;nan;100609.63;5051826;28;20442;-91
2021/07/11 07:29:21;;;;;;;5.80;5.15;;;;;;;17.18;nan;100608.03;5050925;28;20125;-90
2021/07/11 07:31:47;;;;;;;5.47;4.78;;;;;;;17.23;nan;100607.47;5052133;28;20036;-91
2021/07/11 07:34:13;;;;;;;6.30;5.40;;;;;;;17.25;nan;100618.78;5052954;28;20037;-90
2021/07/11 07:36:38;;;;;;;6.28;5.22;;;;;;;17.24;nan;100611.78;5055962;28;20032;-90
2021/07/11 07:39:04;;;;;;;6.28;5.32;;;;;;;17.27;nan;100614.91;5056054;28;20044;-90
2021/07/11 07:41:29;;;;;;;5.18;4.68;;;;;;;17.34;nan;100617.63;5056161;28;20067;-90
2021/07/11 07:43:55;;;;;;;5.10;4.50;;;;;;;17.43;nan;100611.13;5056003;28;20090;-90
2021/07/11 07:46:21;;;;;;;4.70;4.15;;;;;;;17.54;nan;100615.94;5056392;28;20164;-91
2021/07/11 07:48:46;;;;;;;4.80;4.30;;;;;;;17.64;nan;100610.25;5072502;28;20119;-90
2021/07/11 07:51:11;;;;;;;5.20;4.50;;;;;;;17.71;nan;100611.09;5073200;28;20553;-90
2021/07/11 07:53:37;;;;;;;4.95;4.43;;;;;;;17.84;nan;100607.69;5055563;28;20037;-91
2021/07/11 07:56:02;;;;;;;4.45;3.92;;;;;;;17.91;nan;100613.91;5071857;28;20030;-89
2021/07/11 07:58:27;;;;;;;4.70;4.20;;;;;;;18.08;nan;100618.94;5056302;28;20032;-90
2021/07/11 08:00:54;;;;;;;5.15;4.28;;;;;;;18.10;nan;100622.25;5055619;28;20033;-90
2021/07/11 08:03:20;;;;;;;4.63;3.90;;;;;;;18.08;nan;100622.44;5056969;28;20041;-90
2021/07/11 08:05:45;;;;;;;4.10;3.70;;;;;;;18.12;nan;100628.22;5055623;28;20079;-90
2021/07/11 08:08:10;;;;;;;4.57;3.78;;;;;;;18.09;nan;100621.44;5055648;28;20033;-92
2021/07/11 08:10:37;;;;;;;4.95;3.90;;;;;;;17.99;nan;100624.44;5055744;28;20040;-91
2021/07/11 08:13:02;;;;;;;4.25;3.45;;;;;;;17.98;nan;100622.81;5059443;28;20056;-91
2021/07/11 08:15:31;;;;;;;3.30;3.00;;;;;;;18.06;nan;100620.97;5064373;28;20424;-92
2021/07/11 08:17:56;;;;;;;4.65;2.90;;;;;;;18.16;nan;100629.47;5054944;28;20508;-91
2021/07/11 08:20:23;;;;;;;4.20;3.28;;;;;;;17.97;nan;100621.16;5055252;28;20136;-92
2021/07/11 08:22:51;;;;;;;3.15;2.50;;;;;;;17.97;nan;100620.31;5071078;28;20033;-92
2021/07/11 08:25:17;;;;;;;3.47;2.85;;;;;;;17.83;nan;100620.25;5040188;28;20507;-92
2021/07/11 08:27:44;;;;;;;4.45;3.13;;;;;;;17.91;nan;100623.78;5053738;28;20041;-91
2021/07/11 08:30:11;;;;;;;4.18;3.13;;;;;;;17.89;nan;100623.97;5055329;28;20388;-91
2021/07/11 08:32:40;;;;;;;3.15;2.50;;;;;;;17.94;nan;100632.25;5070380;28;20056;-90
2021/07/11 08:35:07;;;;;;;3.40;2.55;;;;;;;17.96;nan;100624.03;5052626;28;20035;-92
2021/07/11 08:37:33;;;;;;;3.28;2.90;;;;;;;18.00;nan;100634.13;5052671;28;20512;-91
2021/07/11 08:39:58;;;;;;;3.28;2.72;;;;;;;18.02;nan;100634.75;5052627;28;20043;-91
2021/07/11 08:42:24;;;;;;;4.00;2.83;;;;;;;18.06;nan;100637.84;5051880;28;20029;-91
2021/07/11 08:44:51;;;;;;;3.90;2.90;;;;;;;18.05;nan;100638.91;5051522;28;20040;-91
2021/07/11 08:47:16;;;;;;;4.97;3.15;;;;;;;17.95;nan;100641.13;5045836;28;20025;-91
2021/07/11 08:49:41;;;;;;;4.50;3.10;;;;;;;17.93;nan;100640.47;5048968;28;20389;-91
2021/07/11 08:52:07;;;;;;;3.05;2.60;;;;;;;18.00;nan;100636.00;5046127;28;20029;-91
2021/07/11 08:54:32;;;;;;;3.35;2.60;;;;;;;18.13;nan;100643.25;5047987;28;20052;-91
2021/07/11 08:57:04;;;;;;;3.83;2.60;;;;;;;18.11;nan;100645.28;5050693;28;20128;-92
2021/07/11 08:59:30;;;;;;;3.30;2.38;;;;;;;18.19;nan;100643.28;5068246;28;20037;-91
2021/07/11 09:01:57;;;;;;;3.10;2.78;;;;;;;18.23;nan;100646.38;5054983;28;20120;-91
2021/07/11 09:04:23;;;;;;;4.38;2.70;;;;;;;18.38;nan;100649.75;5049068;28;20037;-91
2021/07/11 09:06:54;;;;;;;3.45;2.55;;;;;;;18.59;nan;100645.28;5049743;28;20047;-90
2021/07/11 09:09:28;;;;;;;3.40;2.30;;;;;;;18.77;nan;100642.88;5053358;28;20033;-90
2021/07/11 09:12:01;;;;;;;3.63;2.03;;;;;;;18.98;nan;100643.75;5052747;28;20495;-90
2021/07/11 09:14:29;;;;;;;2.40;2.00;;;;;;;18.99;nan;100648.91;5062732;28;20383;-90
2021/07/11 09:16:56;;;;;;;3.55;2.30;;;;;;;19.09;nan;100637.78;5053716;28;20052;-91
2021/07/11 09:19:34;;;;;;;2.75;2.10;;;;;;;19.38;nan;100643.75;5053969;28;20483;-91
2021/07/11 09:22:25;;;;;;;2.60;2.00;;;;;;;19.81;nan;100651.41;5053145;28;20033;-90
2021/07/11 09:25:00;;;;;;;2.90;2.30;;;;;;;20.16;nan;100654.59;5044699;28;20396;-90
2021/07/11 09:27:29;;;;;;;3.42;2.30;;;;;;;20.18;nan;100659.75;5060808;28;20033;-90
2021/07/11 09:29:59;;;;;;;2.70;2.15;;;;;;;20.33;nan;100658.47;5051852;28;20029;-90
2021/07/11 09:32:33;;;;;;;4.05;2.00;;;;;;;20.20;nan;100652.31;5058165;28;20029;-90
2021/07/11 09:35:12;;;;;;;2.55;1.88;;;;;;;20.09;nan;100657.31;5052233;28;20059;-90
2021/07/11 09:37:40;;;;;;;3.58;2.00;;;;;;;20.06;nan;100656.91;5060395;28;20072;-90
2021/07/11 09:40:07;;;;;;;2.40;1.90;;;;;;;20.16;nan;100657.28;5052028;28;20399;-90
2021/07/11 09:42:34;;;;;;;2.75;1.88;;;;;;;20.28;nan;100650.19;5053661;28;20032;-89
2021/07/11 09:45:03;;;;;;;2.65;2.13;;;;;;;20.46;nan;100652.22;5052089;28;20385;-89
2021/07/11 09:47:32;;;;;;;2.65;2.00;;;;;;;20.60;nan;100655.69;5058618;28;20035;-89
2021/07/11 09:50:07;;;;;;;3.33;2.03;;;;;;;20.72;nan;100653.16;5058810;28;20029;-89
2021/07/11 09:52:33;;;;;;;2.67;2.03;;;;;;;20.57;nan;100653.44;5065746;28;20041;-90
2021/07/11 09:55:06;;;;;;;2.00;1.70;;;;;;;20.66;nan;100643.25;5051909;28;20032;-89
2021/07/11 09:57:36;;;;;;;3.65;1.88;;;;;;;20.61;nan;100643.06;5061415;28;20029;-90
2021/07/11 10:00:33;;;;;;;2.60;2.00;;;;;;;20.40;nan;100636.94;5052876;28;20064;-90
2021/07/11 10:03:01;;;;;;;2.72;2.10;;;;;;;20.22;nan;100643.00;5051243;28;20065;-89
2021/07/11 10:05:27;;;;;;;2.28;1.80;;;;;;;20.13;nan;100641.59;5052746;28;20037;-89
2021/07/11 10:07:53;;;;;;;3.90;2.10;;;;;;;20.14;nan;100644.09;5058801;28;20033;-90
2021/07/11 10:10:24;;;;;;;2.72;2.20;;;;;;;20.14;nan;100644.09;5051126;28;20029;-89
2021/07/11 10:12:51;;;;;;;3.13;1.92;;;;;;;20.35;nan;100642.13;5056372;28;20037;-89
2021/07/11 10:15:20;;;;;;;4.13;2.90;;;;;;;20.48;nan;100650.13;5063475;28;20356;-89
2021/07/11 10:18:12;;;;;;;2.60;2.17;;;;;;;20.60;nan;100652.19;5051668;28;20029;-89
2021/07/11 10:20:54;;;;;;;3.42;2.10;;;;;;;20.63;nan;100652.56;5064621;28;21523;-90
2021/07/11 10:23:28;;;;;;;2.20;1.80;;;;;;;20.70;nan;100647.16;5051757;28;20029;-89
2021/07/11 10:25:59;;;;;;;2.90;2.03;;;;;;;20.81;nan;100640.25;5051128;28;20032;-89
2021/07/11 10:28:30;;;;;;;2.33;1.90;;;;;;;20.91;nan;100649.50;5050684;28;20052;-89
2021/07/11 10:30:55;;;;;;;2.40;1.75;;;;;;;21.24;nan;100647.59;5050782;28;20098;-89
2021/07/11 10:33:23;;;;;;;2.05;1.70;;;;;;;21.53;nan;100646.16;5050591;28;20503;-89
2021/07/11 10:35:58;;;;;;;2.78;2.05;;;;;;;21.48;nan;100638.75;5051217;28;20048;-89
2021/07/11 10:38:26;;;;;;;2.92;1.92;;;;;;;21.80;nan;100641.34;5049769;28;20036;-89
2021/07/11 10:40:51;;;;;;;3.80;2.67;;;;;;;22.00;nan;100635.72;5051435;28;20073;-89
2021/07/11 10:43:17;;;;;;;2.38;1.90;;;;;;;21.95;nan;100640.97;5051205;28;20440;-89
2021/07/11 10:45:46;;;;;;;2.33;1.70;;;;;;;22.41;nan;100640.44;5052637;28;20090;-89
2021/07/11 10:48:13;;;;;;;2.75;2.00;;;;;;;22.55;nan;100645.66;5051149;28;20036;-89
2021/07/11 10:50:43;;;;;;;2.20;1.90;;;;;;;22.60;nan;100641.22;5051302;28;20561;-89
2021/07/11 10:53:17;;;;;;;3.72;2.00;;;;;;;22.73;nan;100648.31;5051765;28;20521;-88
2021/07/11 10:55:44;;;;;;;2.75;1.98;;;;;;;22.52;nan;100640.72;5051275;28;20048;-89
2021/07/11 10:58:13;;;;;;;3.28;1.73;;;;;;;22.67;nan;100639.25;5051587;28;20029;-88
2021/07/11 11:00:39;;;;;;;2.50;1.90;;;;;;;22.89;nan;100633.34;5051044;28;20389;-90
2021/07/11 11:03:19;;;;;;;3.13;1.83;;;;;;;23.22;nan;100640.94;5050783;28;20037;-89
2021/07/11 11:05:46;;;;;;;2.83;1.60;;;;;;;23.07;nan;100643.25;5050625;28;20033;-88
2021/07/11 11:08:14;;;;;;;2.40;1.60;;;;;;;22.62;nan;100640.97;5051483;28;20036;-88
2021/07/11 11:10:44;;;;;;;1.88;1.40;;;;;;;22.44;nan;100647.25;5049857;28;20025;-88
2021/07/11 11:13:17;;;;;;;2.30;1.60;;;;;;;22.41;nan;100642.31;5050839;28;20392;-88
2021/07/11 11:15:50;;;;;;;2.05;1.50;;;;;;;22.37;nan;100641.13;5046787;28;20513;-88
2021/07/11 11:18:30;;;;;;;2.00;1.65;;;;;;;22.15;nan;100638.06;5070850;28;20511;-89
2021/07/11 11:21:01;;;;;;;2.42;1.70;;;;;;;21.95;nan;100638.28;5050875;28;20029;-89
2021/07/11 11:23:34;;;;;;;2.00;1.55;;;;;;;21.83;nan;100640.88;5059397;28;20329;-88
2021/07/11 11:26:00;;;;;;;2.33;1.50;;;;;;;22.03;nan;100629.91;5057940;28;20060;-89
2021/07/11 11:28:32;;;;;;;1.88;1.30;;;;;;;22.09;nan;100633.56;5052144;28;20033;-89
2021/07/11 11:31:07;;;;;;;2.00;1.60;;;;;;;22.00;nan;100633.88;5052410;28;20114;-88
2021/07/11 11:33:46;;;;;;;1.90;1.40;;;;;;;22.11;nan;100636.84;5051608;28;20087;-89
2021/07/11 11:36:11;;;;;;;1.88;1.10;;;;;;;22.23;nan;100633.19;5049524;28;20032;-88
2021/07/11 11:38:41;;;;;;;2.13;1.40;;;;;;;22.31;nan;100628.56;5050214;28;20039;-88
2021/07/11 11:41:14;;;;;;;1.65;1.27;;;;;;;22.37;nan;100624.97;5050390;28;20029;-89
2021/07/11 11:43:41;;;;;;;2.58;1.50;;;;;;;22.37;nan;100630.34;5053789;28;20024;-88
2021/07/11 11:46:07;;;;;;;3.80;1.70;;;;;;;21.84;nan;100635.28;5054701;28;20034;-88
2021/07/11 11:48:32;;;;;;;2.20;1.42;;;;;;;21.58;nan;100624.78;5050436;28;20036;-88